This is the latest recevied weather packets stored in our database for station/object KF7BKV-1. If no packets are shown the sender has not sent any weather packets the latest 1 day(s).
| Time | Temp. | Humidity | Pressure | Rain* | Wind** | Luminosity | Snow |
|---|---|---|---|---|---|---|---|
| 1778036043 | 20.56° C | 30% | 1010.1 hPa | 0 mm | 2.24 m/s, 359° | - | - |
| 1778035983 | 20.56° C | 30% | 1010.1 hPa | 0 mm | 2.24 m/s, 359° | - | - |
| 1778035923 | 20.56° C | 30% | 1010.1 hPa | 0 mm | 2.24 m/s, 359° | - | - |
| 1778035683 | 20.56° C | 29% | 1010.1 hPa | 0 mm | 3.58 m/s, 303° | - | - |
| 1778035623 | 20.56° C | 29% | 1010.1 hPa | 0 mm | 3.58 m/s, 303° | - | - |
| 1778035563 | 20.56° C | 29% | 1010.1 hPa | 0 mm | 3.58 m/s, 303° | - | - |
| 1778035443 | 21.11° C | 29% | 1010 hPa | 0 mm | 3.13 m/s, 290° | - | - |
| 1778035383 | 21.11° C | 29% | 1010 hPa | 0 mm | 3.13 m/s, 290° | - | - |
| 1778035323 | 21.11° C | 29% | 1010 hPa | 0 mm | 3.13 m/s, 290° | - | - |
| 1778035263 | 21.11° C | 29% | 1010 hPa | 0 mm | 3.13 m/s, 290° | - | - |
| 1778035143 | 21.11° C | 29% | 1009.7 hPa | 0 mm | 4.02 m/s, 306° | - | - |
| 1778035084 | 21.11° C | 29% | 1009.7 hPa | 0 mm | 4.02 m/s, 306° | - | - |
| 1778035023 | 21.11° C | 29% | 1009.7 hPa | 0 mm | 4.02 m/s, 306° | - | - |
| 1778034963 | 21.11° C | 29% | 1009.7 hPa | 0 mm | 4.02 m/s, 306° | - | - |
| 1778034843 | 21.67° C | 29% | 1009.7 hPa | 0 mm | 3.58 m/s, 291° | - | - |
| 1778034663 | 21.67° C | 29% | 1009.7 hPa | 0 mm | 3.58 m/s, 291° | - | - |
| 1778034483 | 21.67° C | 28% | 1009.7 hPa | 0 mm | 4.92 m/s, 332° | - | - |
| 1778034423 | 21.67° C | 28% | 1009.7 hPa | 0 mm | 4.92 m/s, 332° | - | - |
| 1778034183 | 21.67° C | 28% | 1009.7 hPa | 0 mm | 3.58 m/s, 275° | - | - |
| 1778034063 | 21.67° C | 28% | 1009.7 hPa | 0 mm | 3.58 m/s, 275° | - | - |
| 1778033943 | 22.22° C | 28% | 1009.4 hPa | 0 mm | 3.58 m/s, 277° | - | - |
| 1778033883 | 22.22° C | 28% | 1009.4 hPa | 0 mm | 3.58 m/s, 277° | - | - |
| 1778033823 | 22.22° C | 28% | 1009.4 hPa | 0 mm | 3.58 m/s, 277° | - | - |
| 1778033763 | 22.22° C | 28% | 1009.4 hPa | 0 mm | 3.58 m/s, 277° | - | - |
| 1778033583 | 22.22° C | 27% | 1009.1 hPa | 0 mm | 5.81 m/s, 314° | - | - |
* Rain latest hour (hover to see other rain measurements)
** Current wind speed in m/s (hover to see current wind gust speed)